createdAt,value
2022-10-17T00:02:17.337Z,10.19
2022-10-17T00:04:44.134Z,10.18
2022-10-17T00:07:11.131Z,10.24
2022-10-17T00:09:37.967Z,10.09
2022-10-17T00:12:04.982Z,9.99
2022-10-17T00:14:31.854Z,9.93
2022-10-17T00:16:58.650Z,9.93
2022-10-17T00:19:44.328Z,9.96
2022-10-17T00:22:11.264Z,10.01
2022-10-17T00:24:38.074Z,9.86
2022-10-17T00:27:05.010Z,9.89
2022-10-17T00:29:31.814Z,10.03
2022-10-17T00:32:01.332Z,10.07
2022-10-17T00:34:29.790Z,9.92
2022-10-17T00:36:56.616Z,10.02
2022-10-17T00:39:23.552Z,9.92
2022-10-17T00:41:50.642Z,9.85
2022-10-17T00:44:29.526Z,9.86
2022-10-17T00:46:59.114Z,9.86
2022-10-17T00:49:28.719Z,9.80
2022-10-17T00:51:59.249Z,9.76
2022-10-17T00:54:35.660Z,9.70
2022-10-17T00:57:03.564Z,9.74
2022-10-17T00:59:34.094Z,9.65
2022-10-17T01:02:04.794Z,9.71
2022-10-17T01:04:32.086Z,9.67
2022-10-17T01:06:59.043Z,9.66
2022-10-17T01:09:27.474Z,9.68
2022-10-17T01:12:21.358Z,9.62
2022-10-17T01:14:51.002Z,9.65
2022-10-17T01:17:34.027Z,9.66
2022-10-17T01:20:34.903Z,9.51
2022-10-17T01:23:28.341Z,9.55
2022-10-17T01:26:21.519Z,9.46
2022-10-17T01:29:26.458Z,9.38
2022-10-17T01:32:02.154Z,9.40
2022-10-17T01:35:00.190Z,9.46
2022-10-17T01:37:37.534Z,9.57
2022-10-17T01:40:12.823Z,9.47
2022-10-17T01:43:02.934Z,9.52
2022-10-17T01:45:29.664Z,9.34
2022-10-17T01:48:00.827Z,9.43
2022-10-17T01:50:51.686Z,9.43
2022-10-17T01:53:36.040Z,9.43
2022-10-17T01:56:08.046Z,9.46
2022-10-17T01:58:58.588Z,9.37
2022-10-17T02:01:29.666Z,9.31
2022-10-17T02:03:58.362Z,9.14
2022-10-17T02:06:25.503Z,9.30
2022-10-17T02:08:52.435Z,9.20
2022-10-17T02:11:23.004Z,9.32
2022-10-17T02:13:58.877Z,9.26
2022-10-17T02:17:02.415Z,9.28
2022-10-17T02:19:57.902Z,9.26
2022-10-17T02:22:42.057Z,9.29
2022-10-17T02:25:20.642Z,9.35
2022-10-17T02:28:05.433Z,9.47
2022-10-17T02:31:02.968Z,9.27
2022-10-17T02:33:37.484Z,9.22
2022-10-17T02:36:09.544Z,9.19
2022-10-17T02:38:37.057Z,9.18
2022-10-17T02:41:07.936Z,9.30
2022-10-17T02:43:36.519Z,9.34
2022-10-17T02:46:04.236Z,9.29
2022-10-17T02:48:50.431Z,9.25
2022-10-17T02:51:26.011Z,9.27
2022-10-17T02:54:31.996Z,9.21
2022-10-17T02:57:03.562Z,9.25
2022-10-17T03:02:04.763Z,9.19
2022-10-17T03:04:32.838Z,9.17
2022-10-17T03:07:00.101Z,9.20
2022-10-17T03:09:27.652Z,9.11
2022-10-17T03:11:54.626Z,9.13
2022-10-17T03:14:21.594Z,9.09
2022-10-17T03:16:48.429Z,9.03
2022-10-17T03:19:15.380Z,8.98
2022-10-17T03:21:42.196Z,8.96
2022-10-17T03:24:09.225Z,9.09
2022-10-17T03:26:36.559Z,8.98
2022-10-17T03:29:04.072Z,8.81
2022-10-17T03:31:31.261Z,8.84
2022-10-17T03:33:58.221Z,8.89
2022-10-17T03:36:25.255Z,8.98
2022-10-17T03:38:55.482Z,8.85
2022-10-17T03:41:22.432Z,8.93
2022-10-17T03:43:49.394Z,8.99
2022-10-17T03:48:48.107Z,8.90
2022-10-17T03:51:15.643Z,8.72
2022-10-17T03:53:42.657Z,8.80
2022-10-17T03:56:21.805Z,8.90
2022-10-17T03:58:49.215Z,8.97
2022-10-17T04:01:17.739Z,8.92
2022-10-17T04:03:44.879Z,9.00
2022-10-17T04:06:13.047Z,8.96
2022-10-17T04:08:40.263Z,8.99
2022-10-17T04:11:08.561Z,8.99
2022-10-17T04:13:36.123Z,9.07
2022-10-17T04:16:08.730Z,8.90
2022-10-17T04:18:35.678Z,8.81
2022-10-17T04:21:03.684Z,8.85
2022-10-17T04:23:30.860Z,8.77
2022-10-17T04:25:58.935Z,8.69
2022-10-17T04:28:27.464Z,8.63
2022-10-17T04:31:02.147Z,8.60
2022-10-17T04:33:29.609Z,8.64
2022-10-17T04:36:04.805Z,8.69
2022-10-17T04:38:33.069Z,8.60
2022-10-17T04:41:05.245Z,8.63
2022-10-17T04:43:37.154Z,8.49
2022-10-17T04:46:07.231Z,8.56
2022-10-17T04:48:34.034Z,8.59
2022-10-17T04:51:04.627Z,8.60
2022-10-17T04:53:33.983Z,8.62
2022-10-17T04:56:01.168Z,8.60
2022-10-17T04:58:31.018Z,8.60
2022-10-17T05:00:57.958Z,8.73
2022-10-17T05:03:24.972Z,8.67
2022-10-17T05:05:51.855Z,8.80
2022-10-17T05:08:18.679Z,9.17
2022-10-17T05:10:48.629Z,9.75
2022-10-17T05:13:16.202Z,10.34
2022-10-17T05:15:43.051Z,10.86
2022-10-17T05:18:10.068Z,11.02
2022-10-17T05:20:36.964Z,11.55
2022-10-17T05:23:03.832Z,11.99
2022-10-17T05:25:30.711Z,12.01
2022-10-17T05:27:57.628Z,12.44
2022-10-17T05:30:24.615Z,12.64
2022-10-17T05:32:55.252Z,13.24
2022-10-17T05:35:22.889Z,13.76
2022-10-17T05:37:49.750Z,14.13
2022-10-17T05:40:16.774Z,14.08
2022-10-17T05:42:48.057Z,14.44
2022-10-17T05:45:16.087Z,15.40
2022-10-17T05:47:42.997Z,15.88
2022-10-17T05:50:10.521Z,15.61
2022-10-17T05:52:37.448Z,15.52
2022-10-17T05:55:05.880Z,15.87
2022-10-17T05:57:32.972Z,16.53
2022-10-17T06:00:01.035Z,16.38
2022-10-17T06:02:28.144Z,17.02
2022-10-17T06:04:55.452Z,17.73
2022-10-17T06:07:22.408Z,18.50
2022-10-17T06:09:49.267Z,18.39
2022-10-17T06:12:16.387Z,18.23
2022-10-17T06:14:43.308Z,18.67
2022-10-17T06:17:15.568Z,19.65
2022-10-17T06:19:44.936Z,19.71
2022-10-17T06:22:12.386Z,19.76
2022-10-17T06:24:39.328Z,20.95
2022-10-17T06:27:10.895Z,21.57
2022-10-17T06:29:57.463Z,21.62
2022-10-17T06:32:24.450Z,22.17
2022-10-17T06:34:51.358Z,22.78
2022-10-17T06:37:18.971Z,22.62
2022-10-17T06:39:45.900Z,22.87
2022-10-17T06:42:12.960Z,23.96
2022-10-17T06:44:41.200Z,24.63
2022-10-17T06:47:08.225Z,24.40
2022-10-17T06:49:35.134Z,24.36
2022-10-17T06:52:02.003Z,24.30
2022-10-17T06:54:28.924Z,24.48
2022-10-17T06:56:56.377Z,23.79
2022-10-17T06:59:23.277Z,24.16
2022-10-17T07:01:50.412Z,23.73
2022-10-17T07:04:17.468Z,23.92
2022-10-17T07:06:44.484Z,24.05
2022-10-17T07:09:11.476Z,23.64
2022-10-17T07:11:38.455Z,23.55
2022-10-17T07:14:05.325Z,23.16
2022-10-17T07:16:32.705Z,23.74
2022-10-17T07:18:59.794Z,23.88
2022-10-17T07:21:29.789Z,24.72
2022-10-17T07:23:56.710Z,24.15
2022-10-17T07:26:23.608Z,24.03
2022-10-17T07:28:54.419Z,22.84
2022-10-17T07:31:22.876Z,23.59
2022-10-17T07:33:50.327Z,23.68
2022-10-17T07:36:18.096Z,22.90
2022-10-17T07:38:45.132Z,22.57
2022-10-17T07:41:17.762Z,23.03
2022-10-17T07:43:48.042Z,22.31
2022-10-17T07:46:14.894Z,22.59
2022-10-17T07:48:41.756Z,22.65
2022-10-17T07:51:10.053Z,22.64
2022-10-17T07:53:38.748Z,22.81
2022-10-17T07:56:07.680Z,22.31
2022-10-17T07:58:35.639Z,22.36
2022-10-17T08:01:14.822Z,21.53
2022-10-17T08:03:44.615Z,22.56
2022-10-17T08:06:12.726Z,22.53
2022-10-17T08:08:39.727Z,22.60
2022-10-17T08:11:12.002Z,22.55
2022-10-17T08:13:40.570Z,21.60
2022-10-17T08:16:10.716Z,22.51
2022-10-17T08:18:40.662Z,22.72
2022-10-17T08:21:08.644Z,21.78
2022-10-17T08:23:36.544Z,22.46
2022-10-17T08:26:05.966Z,22.50
2022-10-17T08:28:35.867Z,22.38
2022-10-17T08:31:05.083Z,21.57
2022-10-17T08:33:33.427Z,21.86
2022-10-17T08:36:02.093Z,21.94
2022-10-17T08:38:32.111Z,22.14
2022-10-17T08:41:21.850Z,21.96
2022-10-17T08:44:33.429Z,22.03
2022-10-17T08:47:04.648Z,22.27
2022-10-17T08:49:47.295Z,22.20
2022-10-17T08:52:32.942Z,22.12
2022-10-17T08:54:59.881Z,21.70
2022-10-17T08:57:29.121Z,21.09
2022-10-17T08:59:57.463Z,21.68
2022-10-17T09:02:45.080Z,21.58
2022-10-17T09:05:44.335Z,21.47
2022-10-17T09:08:23.275Z,21.85
2022-10-17T09:10:56.664Z,21.52
2022-10-17T09:13:54.477Z,21.53
2022-10-17T09:16:38.432Z,22.09
2022-10-17T09:19:29.493Z,21.60
2022-10-17T09:22:09.503Z,21.68
2022-10-17T09:24:39.178Z,21.75
2022-10-17T09:27:29.978Z,21.11
2022-10-17T09:30:44.212Z,21.31
2022-10-17T09:33:34.283Z,21.31
2022-10-17T09:36:05.921Z,21.13
2022-10-17T09:38:45.982Z,21.23
2022-10-17T09:41:44.194Z,21.52
2022-10-17T09:44:22.118Z,21.65
2022-10-17T09:50:31.954Z,22.49
2022-10-17T09:53:11.659Z,22.42
2022-10-17T09:55:51.152Z,22.79
2022-10-17T09:58:18.064Z,22.18
2022-10-17T10:00:47.695Z,22.36
2022-10-17T10:03:22.078Z,22.13
2022-10-17T10:06:05.169Z,22.14
2022-10-17T10:08:36.025Z,22.35
2022-10-17T10:11:13.415Z,21.97
2022-10-17T10:13:41.248Z,21.79
2022-10-17T10:16:41.668Z,22.05
2022-10-17T10:19:26.739Z,22.06
2022-10-17T10:22:00.025Z,22.19
2022-10-17T10:24:30.754Z,22.21
2022-10-17T10:27:02.600Z,21.56
2022-10-17T10:29:34.416Z,21.84
2022-10-17T10:32:29.642Z,21.95
2022-10-17T10:35:23.099Z,21.75
2022-10-17T10:37:56.458Z,21.89
2022-10-17T10:40:27.597Z,21.71
2022-10-17T10:43:04.029Z,21.89
2022-10-17T10:45:53.387Z,21.76
2022-10-17T10:48:24.658Z,21.96
2022-10-17T10:51:14.692Z,22.15
2022-10-17T10:54:18.007Z,21.63
2022-10-17T10:56:53.688Z,21.56
2022-10-17T10:59:35.573Z,21.57
2022-10-17T11:02:34.496Z,21.62
2022-10-17T11:05:21.181Z,21.18
2022-10-17T11:08:04.236Z,21.48
2022-10-17T11:10:44.588Z,21.83
2022-10-17T11:13:18.172Z,21.89
2022-10-17T11:15:52.812Z,21.93
2022-10-17T11:18:41.221Z,22.01
2022-10-17T11:21:24.434Z,21.92
2022-10-17T11:24:17.683Z,21.90
2022-10-17T11:27:06.970Z,21.42
2022-10-17T11:29:38.426Z,21.52
2022-10-17T11:32:35.299Z,21.81
2022-10-17T11:35:36.859Z,20.95
2022-10-17T11:38:26.804Z,20.56
2022-10-17T11:40:59.929Z,20.81
2022-10-17T11:43:35.592Z,20.76
2022-10-17T11:46:11.640Z,20.96
2022-10-17T11:49:01.072Z,21.41
2022-10-17T11:54:28.911Z,22.08
2022-10-17T11:57:37.474Z,22.34
2022-10-17T12:00:49.121Z,21.70
2022-10-17T12:03:35.069Z,22.08
2022-10-17T12:06:40.433Z,21.56
2022-10-17T12:09:20.995Z,21.95
2022-10-17T12:12:04.672Z,21.85
2022-10-17T12:14:41.955Z,21.97
2022-10-17T12:17:35.591Z,22.31
2022-10-17T12:20:35.781Z,21.76
2022-10-17T12:23:11.446Z,21.67
2022-10-17T12:26:01.535Z,21.79
2022-10-17T12:28:44.614Z,21.98
2022-10-17T12:31:29.564Z,22.02
2022-10-17T12:34:02.223Z,22.07
2022-10-17T12:36:29.084Z,21.94
2022-10-17T12:39:01.969Z,22.09
2022-10-17T12:41:45.174Z,21.92
2022-10-17T12:44:15.142Z,22.14
2022-10-17T12:46:45.060Z,22.17
2022-10-17T12:49:39.733Z,21.99
2022-10-17T12:52:15.393Z,22.09
2022-10-17T12:55:00.364Z,22.20
2022-10-17T12:57:55.809Z,21.93
2022-10-17T13:00:25.480Z,21.99
2022-10-17T13:02:54.942Z,22.21
2022-10-17T13:05:31.794Z,21.79
2022-10-17T13:08:02.455Z,21.61
2022-10-17T13:10:33.623Z,21.67
2022-10-17T13:13:15.806Z,21.89
2022-10-17T13:15:50.636Z,21.15
2022-10-17T13:18:23.456Z,21.49
2022-10-17T13:21:14.492Z,21.54
2022-10-17T13:23:41.625Z,21.39
2022-10-17T13:26:26.785Z,21.46
2022-10-17T13:29:12.680Z,21.50
2022-10-17T13:31:42.453Z,21.39
2022-10-17T13:34:18.391Z,21.25
2022-10-17T13:36:49.244Z,21.43
2022-10-17T13:39:23.090Z,21.30
2022-10-17T13:41:59.856Z,21.40
2022-10-17T13:44:32.638Z,21.25
2022-10-17T13:46:59.730Z,21.41
2022-10-17T13:49:34.830Z,21.30
2022-10-17T13:52:05.360Z,21.17
2022-10-17T13:54:36.956Z,21.25
2022-10-17T13:57:05.856Z,21.17
2022-10-17T13:59:43.545Z,21.22
2022-10-17T14:02:25.472Z,21.14
2022-10-17T14:05:19.340Z,21.14
2022-10-17T14:08:11.334Z,21.21
2022-10-17T14:10:41.176Z,20.95
2022-10-17T14:13:23.013Z,21.01
2022-10-17T14:15:51.131Z,21.03
2022-10-17T14:18:24.117Z,21.04
2022-10-17T14:23:44.170Z,20.96
2022-10-17T14:26:18.911Z,20.73
2022-10-17T14:29:07.580Z,20.59
2022-10-17T14:31:37.631Z,20.70
2022-10-17T14:34:05.733Z,20.58
2022-10-17T14:36:36.225Z,20.49
2022-10-17T14:39:05.094Z,20.57
2022-10-17T14:41:42.791Z,20.28
2022-10-17T14:44:19.094Z,20.37
2022-10-17T14:46:50.804Z,20.39
2022-10-17T14:49:25.440Z,20.30
2022-10-17T14:52:18.594Z,19.99
2022-10-17T14:54:48.329Z,20.08
2022-10-17T14:57:19.418Z,20.03
2022-10-17T14:59:55.081Z,19.95
2022-10-17T15:02:27.845Z,19.79
2022-10-17T15:04:55.211Z,19.86
2022-10-17T15:07:22.432Z,19.71
2022-10-17T15:09:51.191Z,19.58
2022-10-17T15:12:20.758Z,19.43
2022-10-17T15:14:48.682Z,19.44
2022-10-17T15:17:20.982Z,19.35
2022-10-17T15:19:48.807Z,19.21
2022-10-17T15:22:16.388Z,19.18
2022-10-17T15:24:43.370Z,19.07
2022-10-17T15:27:24.662Z,19.03
2022-10-17T15:29:53.186Z,19.07
2022-10-17T15:32:20.106Z,18.91
2022-10-17T15:34:47.266Z,18.82
2022-10-17T15:37:25.591Z,18.77
2022-10-17T15:39:55.712Z,18.72
2022-10-17T15:42:26.889Z,18.59
2022-10-17T15:44:54.044Z,18.56
2022-10-17T15:47:35.491Z,18.53
2022-10-17T15:50:22.049Z,18.45
2022-10-17T15:52:51.160Z,18.42
2022-10-17T15:55:18.447Z,18.36
2022-10-17T15:57:47.621Z,18.29
2022-10-17T16:00:20.733Z,18.17
2022-10-17T16:02:50.228Z,18.08
2022-10-17T16:05:29.348Z,17.92
2022-10-17T16:07:57.654Z,17.70
2022-10-17T16:10:26.141Z,17.52
2022-10-17T16:12:53.134Z,17.42
2022-10-17T16:15:24.123Z,17.32
2022-10-17T16:17:52.443Z,17.19
2022-10-17T16:20:20.373Z,17.07
2022-10-17T16:22:48.525Z,16.87
2022-10-17T16:25:22.624Z,16.81
2022-10-17T16:27:53.073Z,16.71
2022-10-17T16:32:49.501Z,16.50
2022-10-17T16:35:18.892Z,16.36
2022-10-17T16:37:45.857Z,16.24
2022-10-17T16:40:31.225Z,16.04
2022-10-17T16:42:58.319Z,15.96
2022-10-17T16:45:25.164Z,15.96
2022-10-17T16:47:53.361Z,15.68
2022-10-17T16:50:20.347Z,15.68
2022-10-17T16:52:47.392Z,15.55
2022-10-17T16:55:14.668Z,15.68
2022-10-17T17:00:12.130Z,15.54
2022-10-17T17:02:39.051Z,15.65
2022-10-17T17:05:06.347Z,15.66
2022-10-17T17:07:33.891Z,15.75
2022-10-17T17:10:00.766Z,15.64
2022-10-17T17:12:27.567Z,15.40
2022-10-17T17:14:54.379Z,15.27
2022-10-17T17:17:30.589Z,15.07
2022-10-17T17:20:08.486Z,15.14
2022-10-17T17:22:35.426Z,15.04
2022-10-17T17:25:02.252Z,14.97
2022-10-17T17:27:29.474Z,14.97
2022-10-17T17:29:56.577Z,14.97
2022-10-17T17:32:23.577Z,15.03
2022-10-17T17:34:50.405Z,15.03
2022-10-17T17:37:17.526Z,14.98
2022-10-17T17:39:44.431Z,14.81
2022-10-17T17:44:48.843Z,14.60
2022-10-17T17:47:16.007Z,14.53
2022-10-17T17:49:43.183Z,14.54
2022-10-17T17:52:10.087Z,14.49
2022-10-17T17:54:40.047Z,14.46
2022-10-17T17:57:07.924Z,14.44
2022-10-17T17:59:35.481Z,14.39
2022-10-17T18:02:03.055Z,14.28
2022-10-17T18:04:29.927Z,14.24
2022-10-17T18:06:56.749Z,14.00
2022-10-17T18:09:24.186Z,13.78
2022-10-17T18:11:51.288Z,13.77
2022-10-17T18:14:19.355Z,13.67
2022-10-17T18:16:46.207Z,13.52
2022-10-17T18:19:13.117Z,13.41
2022-10-17T18:21:39.958Z,13.27
2022-10-17T18:24:07.521Z,13.19
2022-10-17T18:26:34.989Z,13.17
2022-10-17T18:29:02.406Z,13.03
2022-10-17T18:31:32.307Z,12.85
2022-10-17T18:34:00.386Z,12.83
2022-10-17T18:36:28.747Z,12.73
2022-10-17T18:38:56.417Z,12.61
2022-10-17T18:41:26.695Z,12.54
2022-10-17T18:43:55.756Z,12.57
2022-10-17T18:46:28.349Z,12.54
2022-10-17T18:48:55.258Z,12.51
2022-10-17T18:51:23.723Z,12.46
2022-10-17T18:53:53.205Z,12.43
2022-10-17T18:56:21.471Z,12.41
2022-10-17T18:58:48.474Z,12.42
2022-10-17T19:01:22.521Z,12.33
2022-10-17T19:03:52.115Z,12.08
2022-10-17T19:06:21.945Z,12.06
2022-10-17T19:08:49.063Z,12.15
2022-10-17T19:11:19.515Z,11.98
2022-10-17T19:13:47.732Z,12.06
2022-10-17T19:16:19.044Z,11.89
2022-10-17T19:18:53.916Z,11.90
2022-10-17T19:21:22.332Z,11.82
2022-10-17T19:23:51.493Z,11.85
2022-10-17T19:26:19.683Z,11.69
2022-10-17T19:28:47.768Z,11.75
2022-10-17T19:31:17.012Z,11.60
2022-10-17T19:33:44.933Z,11.67
2022-10-17T19:36:13.152Z,11.57
2022-10-17T19:38:40.182Z,11.34
2022-10-17T19:41:09.560Z,11.52
2022-10-17T19:43:38.051Z,11.54
2022-10-17T19:46:12.233Z,11.61
2022-10-17T19:48:39.498Z,11.54
2022-10-17T19:51:08.322Z,11.43
2022-10-17T19:53:35.489Z,11.42
2022-10-17T19:56:02.603Z,11.28
2022-10-17T19:58:29.482Z,11.25
2022-10-17T20:00:59.092Z,11.19
2022-10-17T20:03:25.889Z,11.11
2022-10-17T20:05:54.074Z,11.16
2022-10-17T20:08:21.574Z,11.07
2022-10-17T20:10:48.467Z,11.09
2022-10-17T20:13:15.306Z,11.08
2022-10-17T20:15:42.473Z,11.05
2022-10-17T20:18:09.863Z,11.04
2022-10-17T20:20:37.860Z,10.95
2022-10-17T20:23:05.049Z,10.78
2022-10-17T20:25:33.536Z,10.78
2022-10-17T20:28:00.732Z,10.71
2022-10-17T20:30:27.865Z,10.84
2022-10-17T20:32:55.439Z,10.71
2022-10-17T20:35:22.843Z,10.71
2022-10-17T20:37:49.965Z,10.69
2022-10-17T20:40:34.167Z,10.62
2022-10-17T20:43:01.871Z,10.56
2022-10-17T20:45:43.680Z,10.45
2022-10-17T20:48:16.235Z,10.57
2022-10-17T20:50:44.450Z,10.51
2022-10-17T20:56:08.522Z,10.41
2022-10-17T20:58:35.735Z,10.39
2022-10-17T21:01:10.616Z,10.56
2022-10-17T21:03:42.320Z,10.51
2022-10-17T21:06:13.131Z,10.42
2022-10-17T21:08:40.203Z,10.44
2022-10-17T21:11:12.158Z,10.38
2022-10-17T21:13:39.845Z,10.10
2022-10-17T21:16:18.197Z,10.18
2022-10-17T21:18:46.775Z,10.27
2022-10-17T21:21:16.483Z,10.20
2022-10-17T21:23:46.296Z,10.04
2022-10-17T21:26:13.772Z,10.07
2022-10-17T21:28:42.161Z,10.03
2022-10-17T21:31:11.259Z,10.09
2022-10-17T21:33:38.498Z,10.10
2022-10-17T21:36:05.765Z,9.98
2022-10-17T21:38:35.972Z,10.01
2022-10-17T21:41:03.283Z,9.95
2022-10-17T21:43:30.086Z,9.89
2022-10-17T21:45:56.903Z,9.84
2022-10-17T21:48:23.825Z,9.74
2022-10-17T21:50:56.935Z,9.71
2022-10-17T21:53:23.783Z,9.81
2022-10-17T21:55:50.665Z,9.84
2022-10-17T21:58:17.510Z,9.71
2022-10-17T22:00:44.343Z,9.71
2022-10-17T22:03:29.833Z,9.72
2022-10-17T22:06:07.022Z,9.71
2022-10-17T22:08:43.692Z,9.46
2022-10-17T22:11:13.492Z,9.52
2022-10-17T22:13:40.677Z,9.52
2022-10-17T22:16:11.124Z,9.48
2022-10-17T22:18:38.541Z,9.51
2022-10-17T22:21:16.283Z,9.52
2022-10-17T22:23:45.388Z,9.45
2022-10-17T22:26:12.560Z,9.36
2022-10-17T22:28:41.036Z,9.32
2022-10-17T22:33:33.824Z,9.22
2022-10-17T22:36:00.944Z,9.21
2022-10-17T22:38:28.211Z,9.16
2022-10-17T22:40:55.094Z,9.18
2022-10-17T22:43:22.091Z,9.20
2022-10-17T22:45:59.992Z,9.08
2022-10-17T22:48:28.072Z,9.12
2022-10-17T22:50:56.163Z,9.09
2022-10-17T22:53:24.958Z,9.17
2022-10-17T22:55:59.104Z,9.02
2022-10-17T22:58:27.453Z,8.98
2022-10-17T23:00:55.366Z,8.74
2022-10-17T23:03:23.652Z,8.76
2022-10-17T23:05:51.545Z,8.91
2022-10-17T23:08:19.861Z,8.88
2022-10-17T23:10:48.044Z,8.94
2022-10-17T23:13:15.562Z,8.89
2022-10-17T23:15:42.983Z,8.89
2022-10-17T23:18:10.209Z,8.79
2022-10-17T23:20:37.828Z,8.86
2022-10-17T23:23:05.331Z,8.83
2022-10-17T23:25:34.536Z,8.86
2022-10-17T23:28:01.830Z,8.89
2022-10-17T23:30:29.103Z,8.83
2022-10-17T23:32:56.139Z,8.86
2022-10-17T23:35:23.345Z,8.94
2022-10-17T23:37:50.641Z,8.87
2022-10-17T23:40:17.622Z,8.86
2022-10-17T23:42:45.222Z,8.92
2022-10-17T23:45:12.131Z,8.84
2022-10-17T23:47:39.762Z,8.82
2022-10-17T23:50:08.655Z,8.87
2022-10-17T23:52:35.521Z,8.89
2022-10-17T23:55:02.470Z,8.89
2022-10-17T23:57:29.466Z,8.66
2022-10-17T23:59:56.713Z,8.67
